sensor_id;sensor_type;location;lat;lon;timestamp;P1;durP1;ratioP1;P2;durP2;ratioP2
4051;SDS011;2040;50.924;11.604;2024-01-06T00:02:14;6.10;;;3.20;;
4051;SDS011;2040;50.924;11.604;2024-01-06T00:04:39;3.73;;;2.20;;
4051;SDS011;2040;50.924;11.604;2024-01-06T00:07:05;4.43;;;1.80;;
4051;SDS011;2040;50.924;11.604;2024-01-06T00:09:30;1.87;;;1.20;;
4051;SDS011;2040;50.924;11.604;2024-01-06T00:11:56;4.27;;;1.67;;
4051;SDS011;2040;50.924;11.604;2024-01-06T00:14:22;9.23;;;3.80;;
4051;SDS011;2040;50.924;11.604;2024-01-06T00:16:47;8.33;;;4.90;;
4051;SDS011;2040;50.924;11.604;2024-01-06T00:19:13;4.77;;;4.07;;
4051;SDS011;2040;50.924;11.604;2024-01-06T00:21:38;11.70;;;4.63;;
4051;SDS011;2040;50.924;11.604;2024-01-06T00:24:04;7.20;;;4.00;;
4051;SDS011;2040;50.924;11.604;2024-01-06T00:26:29;8.73;;;4.30;;
4051;SDS011;2040;50.924;11.604;2024-01-06T00:28:55;8.13;;;4.23;;
4051;SDS011;2040;50.924;11.604;2024-01-06T00:31:20;18.93;;;4.67;;
4051;SDS011;2040;50.924;11.604;2024-01-06T00:33:46;8.63;;;4.23;;
4051;SDS011;2040;50.924;11.604;2024-01-06T00:36:11;4.33;;;3.40;;
4051;SDS011;2040;50.924;11.604;2024-01-06T00:38:37;7.37;;;3.33;;
4051;SDS011;2040;50.924;11.604;2024-01-06T00:41:03;8.70;;;4.40;;
4051;SDS011;2040;50.924;11.604;2024-01-06T00:43:28;3.60;;;2.83;;
4051;SDS011;2040;50.924;11.604;2024-01-06T00:45:54;5.07;;;3.60;;
4051;SDS011;2040;50.924;11.604;2024-01-06T00:48:20;7.17;;;3.83;;
4051;SDS011;2040;50.924;11.604;2024-01-06T00:50:45;3.83;;;3.30;;
4051;SDS011;2040;50.924;11.604;2024-01-06T00:53:11;7.60;;;3.23;;
4051;SDS011;2040;50.924;11.604;2024-01-06T00:55:37;4.40;;;3.07;;
4051;SDS011;2040;50.924;11.604;2024-01-06T00:58:03;4.90;;;3.40;;
4051;SDS011;2040;50.924;11.604;2024-01-06T01:00:29;5.27;;;3.00;;
4051;SDS011;2040;50.924;11.604;2024-01-06T01:02:56;6.17;;;2.63;;
4051;SDS011;2040;50.924;11.604;2024-01-06T01:05:22;8.20;;;2.60;;
4051;SDS011;2040;50.924;11.604;2024-01-06T01:07:47;12.47;;;3.50;;
4051;SDS011;2040;50.924;11.604;2024-01-06T01:10:13;3.93;;;3.20;;
4051;SDS011;2040;50.924;11.604;2024-01-06T01:12:39;5.10;;;3.50;;
4051;SDS011;2040;50.924;11.604;2024-01-06T01:15:04;5.03;;;3.10;;
4051;SDS011;2040;50.924;11.604;2024-01-06T01:17:30;9.33;;;3.50;;
4051;SDS011;2040;50.924;11.604;2024-01-06T01:19:56;7.67;;;2.90;;
4051;SDS011;2040;50.924;11.604;2024-01-06T01:22:21;4.17;;;2.97;;
4051;SDS011;2040;50.924;11.604;2024-01-06T01:24:47;9.60;;;3.40;;
4051;SDS011;2040;50.924;11.604;2024-01-06T01:27:12;21.43;;;3.60;;
4051;SDS011;2040;50.924;11.604;2024-01-06T01:29:38;6.07;;;3.60;;
4051;SDS011;2040;50.924;11.604;2024-01-06T01:32:03;5.50;;;3.07;;
4051;SDS011;2040;50.924;11.604;2024-01-06T01:34:29;4.60;;;3.03;;
4051;SDS011;2040;50.924;11.604;2024-01-06T01:36:55;8.20;;;3.57;;
4051;SDS011;2040;50.924;11.604;2024-01-06T01:39:20;6.03;;;3.50;;
4051;SDS011;2040;50.924;11.604;2024-01-06T01:41:46;6.20;;;4.07;;
4051;SDS011;2040;50.924;11.604;2024-01-06T01:44:15;8.20;;;3.47;;
4051;SDS011;2040;50.924;11.604;2024-01-06T01:46:41;5.30;;;3.60;;
4051;SDS011;2040;50.924;11.604;2024-01-06T01:49:06;6.27;;;3.67;;
4051;SDS011;2040;50.924;11.604;2024-01-06T01:51:33;7.03;;;3.00;;
4051;SDS011;2040;50.924;11.604;2024-01-06T01:54:00;5.93;;;3.37;;
4051;SDS011;2040;50.924;11.604;2024-01-06T01:56:27;4.10;;;3.20;;
4051;SDS011;2040;50.924;11.604;2024-01-06T01:58:58;9.90;;;3.37;;
4051;SDS011;2040;50.924;11.604;2024-01-06T02:01:26;17.67;;;3.70;;
4051;SDS011;2040;50.924;11.604;2024-01-06T02:03:52;13.20;;;4.93;;
4051;SDS011;2040;50.924;11.604;2024-01-06T02:06:18;19.23;;;4.57;;
4051;SDS011;2040;50.924;11.604;2024-01-06T02:08:43;5.77;;;3.73;;
4051;SDS011;2040;50.924;11.604;2024-01-06T02:11:09;7.27;;;4.33;;
4051;SDS011;2040;50.924;11.604;2024-01-06T02:13:35;148.20;;;9.70;;
4051;SDS011;2040;50.924;11.604;2024-01-06T02:16:05;219.63;;;13.57;;
4051;SDS011;2040;50.924;11.604;2024-01-06T02:18:31;170.30;;;9.80;;
4051;SDS011;2040;50.924;11.604;2024-01-06T02:20:58;142.40;;;10.83;;
4051;SDS011;2040;50.924;11.604;2024-01-06T02:23:25;222.00;;;12.67;;
4051;SDS011;2040;50.924;11.604;2024-01-06T02:25:52;180.80;;;9.53;;
4051;SDS011;2040;50.924;11.604;2024-01-06T02:28:17;126.73;;;8.13;;
4051;SDS011;2040;50.924;11.604;2024-01-06T02:30:43;184.40;;;10.70;;
4051;SDS011;2040;50.924;11.604;2024-01-06T02:33:09;219.20;;;12.17;;
4051;SDS011;2040;50.924;11.604;2024-01-06T02:35:34;147.10;;;10.27;;
4051;SDS011;2040;50.924;11.604;2024-01-06T02:38:00;103.33;;;8.20;;
4051;SDS011;2040;50.924;11.604;2024-01-06T02:40:26;65.53;;;5.00;;
4051;SDS011;2040;50.924;11.604;2024-01-06T02:42:51;21.00;;;4.20;;
4051;SDS011;2040;50.924;11.604;2024-01-06T02:45:17;338.83;;;19.90;;
4051;SDS011;2040;50.924;11.604;2024-01-06T02:47:42;357.43;;;21.97;;
4051;SDS011;2040;50.924;11.604;2024-01-06T02:50:08;434.07;;;22.67;;
4051;SDS011;2040;50.924;11.604;2024-01-06T02:52:34;646.17;;;40.57;;
4051;SDS011;2040;50.924;11.604;2024-01-06T02:54:59;264.13;;;15.33;;
4051;SDS011;2040;50.924;11.604;2024-01-06T02:57:26;242.27;;;13.77;;
4051;SDS011;2040;50.924;11.604;2024-01-06T02:59:55;307.83;;;21.60;;
4051;SDS011;2040;50.924;11.604;2024-01-06T03:02:20;355.07;;;18.47;;
4051;SDS011;2040;50.924;11.604;2024-01-06T03:04:46;251.13;;;20.90;;
4051;SDS011;2040;50.924;11.604;2024-01-06T03:07:11;449.37;;;23.40;;
4051;SDS011;2040;50.924;11.604;2024-01-06T03:09:37;98.93;;;9.10;;
4051;SDS011;2040;50.924;11.604;2024-01-06T03:12:04;183.90;;;8.60;;
4051;SDS011;2040;50.924;11.604;2024-01-06T03:14:31;170.57;;;10.00;;
4051;SDS011;2040;50.924;11.604;2024-01-06T03:16:56;103.07;;;6.40;;
4051;SDS011;2040;50.924;11.604;2024-01-06T03:19:23;162.37;;;12.73;;
4051;SDS011;2040;50.924;11.604;2024-01-06T03:21:51;219.33;;;11.73;;
4051;SDS011;2040;50.924;11.604;2024-01-06T03:24:16;95.40;;;8.33;;
4051;SDS011;2040;50.924;11.604;2024-01-06T03:26:42;189.07;;;7.57;;
4051;SDS011;2040;50.924;11.604;2024-01-06T03:29:07;62.67;;;6.63;;
4051;SDS011;2040;50.924;11.604;2024-01-06T03:31:33;143.83;;;10.23;;
4051;SDS011;2040;50.924;11.604;2024-01-06T03:33:58;248.90;;;13.47;;
4051;SDS011;2040;50.924;11.604;2024-01-06T03:36:24;40.77;;;5.33;;
4051;SDS011;2040;50.924;11.604;2024-01-06T03:38:50;77.57;;;5.57;;
4051;SDS011;2040;50.924;11.604;2024-01-06T03:41:15;7.60;;;2.40;;
4051;SDS011;2040;50.924;11.604;2024-01-06T03:43:41;15.13;;;3.10;;
4051;SDS011;2040;50.924;11.604;2024-01-06T03:46:06;66.97;;;3.80;;
4051;SDS011;2040;50.924;11.604;2024-01-06T03:48:32;16.30;;;3.70;;
4051;SDS011;2040;50.924;11.604;2024-01-06T03:51:01;12.60;;;2.90;;
4051;SDS011;2040;50.924;11.604;2024-01-06T03:53:27;17.13;;;3.10;;
4051;SDS011;2040;50.924;11.604;2024-01-06T03:55:52;3.97;;;2.60;;
4051;SDS011;2040;50.924;11.604;2024-01-06T03:58:18;5.90;;;2.17;;
4051;SDS011;2040;50.924;11.604;2024-01-06T04:00:43;14.43;;;2.77;;
4051;SDS011;2040;50.924;11.604;2024-01-06T04:03:09;19.77;;;4.07;;
4051;SDS011;2040;50.924;11.604;2024-01-06T04:05:35;27.87;;;3.60;;
4051;SDS011;2040;50.924;11.604;2024-01-06T04:08:00;11.40;;;2.50;;
4051;SDS011;2040;50.924;11.604;2024-01-06T04:10:26;27.43;;;4.27;;
4051;SDS011;2040;50.924;11.604;2024-01-06T04:12:51;2.80;;;2.40;;
4051;SDS011;2040;50.924;11.604;2024-01-06T04:15:17;9.23;;;2.87;;
4051;SDS011;2040;50.924;11.604;2024-01-06T04:17:42;23.77;;;3.37;;
4051;SDS011;2040;50.924;11.604;2024-01-06T04:20:08;5.10;;;3.00;;
4051;SDS011;2040;50.924;11.604;2024-01-06T04:22:37;3.00;;;2.40;;
4051;SDS011;2040;50.924;11.604;2024-01-06T04:25:03;2.77;;;2.27;;
4051;SDS011;2040;50.924;11.604;2024-01-06T04:27:29;120.07;;;5.77;;
4051;SDS011;2040;50.924;11.604;2024-01-06T04:29:54;62.60;;;7.73;;
4051;SDS011;2040;50.924;11.604;2024-01-06T04:32:20;108.23;;;7.03;;
4051;SDS011;2040;50.924;11.604;2024-01-06T04:34:45;46.17;;;4.80;;
4051;SDS011;2040;50.924;11.604;2024-01-06T04:37:11;35.23;;;3.70;;
4051;SDS011;2040;50.924;11.604;2024-01-06T04:39:36;118.17;;;6.37;;
4051;SDS011;2040;50.924;11.604;2024-01-06T04:42:02;435.67;;;24.77;;
4051;SDS011;2040;50.924;11.604;2024-01-06T04:44:28;508.43;;;33.27;;
4051;SDS011;2040;50.924;11.604;2024-01-06T04:46:53;394.13;;;23.87;;
4051;SDS011;2040;50.924;11.604;2024-01-06T04:49:19;542.23;;;26.67;;
4051;SDS011;2040;50.924;11.604;2024-01-06T04:51:44;346.60;;;24.77;;
4051;SDS011;2040;50.924;11.604;2024-01-06T04:54:10;406.73;;;22.30;;
4051;SDS011;2040;50.924;11.604;2024-01-06T04:56:35;225.50;;;11.70;;
4051;SDS011;2040;50.924;11.604;2024-01-06T04:59:01;87.73;;;9.07;;
4051;SDS011;2040;50.924;11.604;2024-01-06T05:01:26;275.63;;;16.10;;
4051;SDS011;2040;50.924;11.604;2024-01-06T05:03:52;372.67;;;19.63;;
4051;SDS011;2040;50.924;11.604;2024-01-06T05:06:17;502.93;;;31.83;;
4051;SDS011;2040;50.924;11.604;2024-01-06T05:08:43;277.27;;;18.87;;
4051;SDS011;2040;50.924;11.604;2024-01-06T05:11:10;144.20;;;12.30;;
4051;SDS011;2040;50.924;11.604;2024-01-06T05:13:36;217.20;;;11.97;;
4051;SDS011;2040;50.924;11.604;2024-01-06T05:16:02;32.30;;;5.20;;
4051;SDS011;2040;50.924;11.604;2024-01-06T05:18:28;38.30;;;4.87;;
4051;SDS011;2040;50.924;11.604;2024-01-06T05:20:53;282.27;;;17.20;;
4051;SDS011;2040;50.924;11.604;2024-01-06T05:23:19;82.23;;;9.80;;
4051;SDS011;2040;50.924;11.604;2024-01-06T05:25:45;254.90;;;12.50;;
4051;SDS011;2040;50.924;11.604;2024-01-06T05:28:10;269.50;;;16.60;;
4051;SDS011;2040;50.924;11.604;2024-01-06T05:30:36;31.53;;;4.93;;
4051;SDS011;2040;50.924;11.604;2024-01-06T05:33:01;101.73;;;6.47;;
4051;SDS011;2040;50.924;11.604;2024-01-06T05:35:28;108.80;;;5.83;;
4051;SDS011;2040;50.924;11.604;2024-01-06T05:37:54;294.47;;;15.53;;
4051;SDS011;2040;50.924;11.604;2024-01-06T05:40:19;371.83;;;22.27;;
4051;SDS011;2040;50.924;11.604;2024-01-06T05:42:45;214.23;;;12.80;;
4051;SDS011;2040;50.924;11.604;2024-01-06T05:45:11;96.00;;;7.03;;
4051;SDS011;2040;50.924;11.604;2024-01-06T05:47:38;257.87;;;13.60;;
4051;SDS011;2040;50.924;11.604;2024-01-06T05:50:03;250.53;;;15.57;;
4051;SDS011;2040;50.924;11.604;2024-01-06T05:52:29;158.00;;;11.40;;
4051;SDS011;2040;50.924;11.604;2024-01-06T05:54:55;134.43;;;8.77;;
4051;SDS011;2040;50.924;11.604;2024-01-06T05:57:20;269.13;;;11.80;;
4051;SDS011;2040;50.924;11.604;2024-01-06T05:59:46;81.33;;;6.47;;
4051;SDS011;2040;50.924;11.604;2024-01-06T06:02:11;106.60;;;8.27;;
4051;SDS011;2040;50.924;11.604;2024-01-06T06:04:37;12.50;;;2.73;;
4051;SDS011;2040;50.924;11.604;2024-01-06T06:07:02;3.90;;;2.17;;
4051;SDS011;2040;50.924;11.604;2024-01-06T06:09:28;33.00;;;5.20;;
4051;SDS011;2040;50.924;11.604;2024-01-06T06:11:54;170.53;;;10.20;;
4051;SDS011;2040;50.924;11.604;2024-01-06T06:14:19;199.20;;;8.60;;
4051;SDS011;2040;50.924;11.604;2024-01-06T06:16:45;142.10;;;9.40;;
4051;SDS011;2040;50.924;11.604;2024-01-06T06:19:12;129.90;;;8.77;;
4051;SDS011;2040;50.924;11.604;2024-01-06T06:21:38;108.67;;;8.57;;
4051;SDS011;2040;50.924;11.604;2024-01-06T06:24:04;143.33;;;9.70;;
4051;SDS011;2040;50.924;11.604;2024-01-06T06:26:29;370.53;;;20.77;;
4051;SDS011;2040;50.924;11.604;2024-01-06T06:28:56;522.30;;;25.37;;
4051;SDS011;2040;50.924;11.604;2024-01-06T06:31:21;467.83;;;23.00;;
4051;SDS011;2040;50.924;11.604;2024-01-06T06:33:47;448.87;;;27.73;;
4051;SDS011;2040;50.924;11.604;2024-01-06T06:36:12;420.17;;;33.83;;
4051;SDS011;2040;50.924;11.604;2024-01-06T06:38:38;482.77;;;36.87;;
4051;SDS011;2040;50.924;11.604;2024-01-06T06:41:03;273.43;;;15.00;;
4051;SDS011;2040;50.924;11.604;2024-01-06T06:43:29;312.50;;;22.67;;
4051;SDS011;2040;50.924;11.604;2024-01-06T06:45:54;38.40;;;6.93;;
4051;SDS011;2040;50.924;11.604;2024-01-06T06:48:23;121.47;;;10.40;;
4051;SDS011;2040;50.924;11.604;2024-01-06T06:50:48;150.00;;;9.60;;
4051;SDS011;2040;50.924;11.604;2024-01-06T06:53:14;86.87;;;5.37;;
4051;SDS011;2040;50.924;11.604;2024-01-06T06:55:39;192.93;;;12.53;;
4051;SDS011;2040;50.924;11.604;2024-01-06T06:58:05;360.23;;;20.00;;
4051;SDS011;2040;50.924;11.604;2024-01-06T07:00:31;170.53;;;10.13;;
4051;SDS011;2040;50.924;11.604;2024-01-06T07:02:57;65.60;;;5.10;;
4051;SDS011;2040;50.924;11.604;2024-01-06T07:05:23;20.87;;;5.50;;
4051;SDS011;2040;50.924;11.604;2024-01-06T07:07:49;25.77;;;4.97;;
4051;SDS011;2040;50.924;11.604;2024-01-06T07:10:14;9.73;;;3.43;;
4051;SDS011;2040;50.924;11.604;2024-01-06T07:12:40;15.23;;;3.77;;
4051;SDS011;2040;50.924;11.604;2024-01-06T07:15:05;5.37;;;3.70;;
4051;SDS011;2040;50.924;11.604;2024-01-06T07:17:32;40.07;;;7.30;;
4051;SDS011;2040;50.924;11.604;2024-01-06T07:19:58;18.47;;;6.57;;
4051;SDS011;2040;50.924;11.604;2024-01-06T07:22:23;101.70;;;9.60;;
4051;SDS011;2040;50.924;11.604;2024-01-06T07:24:49;111.90;;;8.10;;
4051;SDS011;2040;50.924;11.604;2024-01-06T07:27:14;53.20;;;9.40;;
4051;SDS011;2040;50.924;11.604;2024-01-06T07:29:40;293.37;;;22.83;;
4051;SDS011;2040;50.924;11.604;2024-01-06T07:32:05;184.43;;;16.53;;
4051;SDS011;2040;50.924;11.604;2024-01-06T07:34:31;94.23;;;7.10;;
4051;SDS011;2040;50.924;11.604;2024-01-06T07:36:57;6.47;;;3.60;;
4051;SDS011;2040;50.924;11.604;2024-01-06T07:39:22;6.80;;;3.00;;
4051;SDS011;2040;50.924;11.604;2024-01-06T07:41:49;8.13;;;3.47;;
4051;SDS011;2040;50.924;11.604;2024-01-06T07:44:15;110.40;;;8.80;;
4051;SDS011;2040;50.924;11.604;2024-01-06T07:46:41;7.07;;;3.60;;
4051;SDS011;2040;50.924;11.604;2024-01-06T07:49:07;6.17;;;3.47;;
4051;SDS011;2040;50.924;11.604;2024-01-06T07:51:32;12.33;;;3.80;;
4051;SDS011;2040;50.924;11.604;2024-01-06T07:53:59;7.97;;;4.47;;
4051;SDS011;2040;50.924;11.604;2024-01-06T07:56:26;21.80;;;6.13;;
4051;SDS011;2040;50.924;11.604;2024-01-06T07:58:51;10.73;;;5.20;;
4051;SDS011;2040;50.924;11.604;2024-01-06T08:01:17;13.33;;;7.63;;
4051;SDS011;2040;50.924;11.604;2024-01-06T08:03:43;13.50;;;5.23;;
4051;SDS011;2040;50.924;11.604;2024-01-06T08:06:09;15.00;;;5.93;;
4051;SDS011;2040;50.924;11.604;2024-01-06T08:08:35;13.30;;;7.10;;
4051;SDS011;2040;50.924;11.604;2024-01-06T08:11:00;6.97;;;3.30;;
4051;SDS011;2040;50.924;11.604;2024-01-06T08:13:26;6.30;;;3.70;;
4051;SDS011;2040;50.924;11.604;2024-01-06T08:15:52;3.63;;;3.23;;
4051;SDS011;2040;50.924;11.604;2024-01-06T08:18:17;9.50;;;3.13;;
4051;SDS011;2040;50.924;11.604;2024-01-06T08:20:43;5.63;;;3.37;;
4051;SDS011;2040;50.924;11.604;2024-01-06T08:23:09;5.07;;;2.50;;
4051;SDS011;2040;50.924;11.604;2024-01-06T08:25:35;3.83;;;2.47;;
4051;SDS011;2040;50.924;11.604;2024-01-06T08:28:01;3.17;;;2.40;;
4051;SDS011;2040;50.924;11.604;2024-01-06T08:30:26;5.27;;;3.40;;
4051;SDS011;2040;50.924;11.604;2024-01-06T08:32:52;10.13;;;3.00;;
4051;SDS011;2040;50.924;11.604;2024-01-06T08:35:17;4.60;;;3.30;;
4051;SDS011;2040;50.924;11.604;2024-01-06T08:37:44;6.10;;;3.27;;
4051;SDS011;2040;50.924;11.604;2024-01-06T08:40:10;7.50;;;3.63;;
4051;SDS011;2040;50.924;11.604;2024-01-06T08:42:36;6.10;;;3.73;;
4051;SDS011;2040;50.924;11.604;2024-01-06T08:45:01;5.93;;;3.50;;
4051;SDS011;2040;50.924;11.604;2024-01-06T08:47:27;17.03;;;6.67;;
4051;SDS011;2040;50.924;11.604;2024-01-06T08:49:53;14.23;;;7.17;;
4051;SDS011;2040;50.924;11.604;2024-01-06T08:52:18;11.50;;;5.83;;
4051;SDS011;2040;50.924;11.604;2024-01-06T08:54:44;13.53;;;7.10;;
4051;SDS011;2040;50.924;11.604;2024-01-06T08:57:09;12.43;;;6.43;;
4051;SDS011;2040;50.924;11.604;2024-01-06T08:59:35;18.33;;;8.93;;
4051;SDS011;2040;50.924;11.604;2024-01-06T09:02:00;34.43;;;15.40;;
4051;SDS011;2040;50.924;11.604;2024-01-06T09:04:26;66.80;;;26.13;;
4051;SDS011;2040;50.924;11.604;2024-01-06T09:06:52;113.13;;;66.67;;
4051;SDS011;2040;50.924;11.604;2024-01-06T09:09:17;70.50;;;35.90;;
4051;SDS011;2040;50.924;11.604;2024-01-06T09:11:43;35.70;;;21.30;;
4051;SDS011;2040;50.924;11.604;2024-01-06T09:14:09;14.83;;;9.93;;
4051;SDS011;2040;50.924;11.604;2024-01-06T09:16:35;12.83;;;6.17;;
4051;SDS011;2040;50.924;11.604;2024-01-06T09:19:01;9.10;;;5.13;;
4051;SDS011;2040;50.924;11.604;2024-01-06T09:21:27;10.57;;;4.73;;
4051;SDS011;2040;50.924;11.604;2024-01-06T09:23:53;6.03;;;4.80;;
4051;SDS011;2040;50.924;11.604;2024-01-06T09:26:18;5.77;;;3.53;;
4051;SDS011;2040;50.924;11.604;2024-01-06T09:28:44;5.83;;;4.40;;
4051;SDS011;2040;50.924;11.604;2024-01-06T09:31:09;7.77;;;3.90;;
4051;SDS011;2040;50.924;11.604;2024-01-06T09:33:35;4.97;;;3.47;;
4051;SDS011;2040;50.924;11.604;2024-01-06T09:36:01;6.37;;;3.77;;
4051;SDS011;2040;50.924;11.604;2024-01-06T09:38:27;6.17;;;3.37;;
4051;SDS011;2040;50.924;11.604;2024-01-06T09:40:52;4.23;;;3.80;;
4051;SDS011;2040;50.924;11.604;2024-01-06T09:43:18;6.50;;;3.70;;
4051;SDS011;2040;50.924;11.604;2024-01-06T09:45:45;5.33;;;3.70;;
4051;SDS011;2040;50.924;11.604;2024-01-06T09:48:20;12.50;;;5.23;;
4051;SDS011;2040;50.924;11.604;2024-01-06T09:50:50;6.20;;;4.30;;
4051;SDS011;2040;50.924;11.604;2024-01-06T09:53:20;9.10;;;4.63;;
4051;SDS011;2040;50.924;11.604;2024-01-06T09:55:46;7.37;;;5.10;;
4051;SDS011;2040;50.924;11.604;2024-01-06T09:58:17;10.77;;;4.43;;
4051;SDS011;2040;50.924;11.604;2024-01-06T10:00:42;8.30;;;4.17;;
4051;SDS011;2040;50.924;11.604;2024-01-06T10:03:08;10.40;;;4.47;;
4051;SDS011;2040;50.924;11.604;2024-01-06T10:05:33;12.93;;;4.37;;
4051;SDS011;2040;50.924;11.604;2024-01-06T10:07:59;9.93;;;4.43;;
4051;SDS011;2040;50.924;11.604;2024-01-06T10:10:24;6.30;;;4.40;;
4051;SDS011;2040;50.924;11.604;2024-01-06T10:12:52;6.60;;;3.73;;
4051;SDS011;2040;50.924;11.604;2024-01-06T10:15:19;7.37;;;4.00;;
4051;SDS011;2040;50.924;11.604;2024-01-06T10:17:45;15.80;;;4.07;;
4051;SDS011;2040;50.924;11.604;2024-01-06T10:20:11;6.43;;;4.50;;
4051;SDS011;2040;50.924;11.604;2024-01-06T10:22:37;7.30;;;4.47;;
4051;SDS011;2040;50.924;11.604;2024-01-06T10:25:06;10.07;;;4.70;;
4051;SDS011;2040;50.924;11.604;2024-01-06T10:27:39;6.57;;;4.30;;
4051;SDS011;2040;50.924;11.604;2024-01-06T10:30:06;5.83;;;3.60;;
4051;SDS011;2040;50.924;11.604;2024-01-06T10:32:32;9.03;;;4.03;;
4051;SDS011;2040;50.924;11.604;2024-01-06T10:34:59;5.00;;;3.50;;
4051;SDS011;2040;50.924;11.604;2024-01-06T10:37:26;5.97;;;3.73;;
4051;SDS011;2040;50.924;11.604;2024-01-06T10:40:08;11.00;;;5.17;;
4051;SDS011;2040;50.924;11.604;2024-01-06T10:42:36;9.50;;;5.30;;
4051;SDS011;2040;50.924;11.604;2024-01-06T10:45:06;8.07;;;5.27;;
4051;SDS011;2040;50.924;11.604;2024-01-06T10:47:34;13.93;;;7.07;;
4051;SDS011;2040;50.924;11.604;2024-01-06T10:50:04;9.80;;;4.93;;
4051;SDS011;2040;50.924;11.604;2024-01-06T10:52:30;4.97;;;4.30;;
4051;SDS011;2040;50.924;11.604;2024-01-06T10:54:56;8.70;;;5.40;;
4051;SDS011;2040;50.924;11.604;2024-01-06T10:57:22;12.70;;;5.40;;
4051;SDS011;2040;50.924;11.604;2024-01-06T10:59:49;8.23;;;4.40;;
4051;SDS011;2040;50.924;11.604;2024-01-06T11:02:16;9.20;;;4.60;;
4051;SDS011;2040;50.924;11.604;2024-01-06T11:04:42;8.13;;;4.30;;
4051;SDS011;2040;50.924;11.604;2024-01-06T11:07:13;7.20;;;4.40;;
4051;SDS011;2040;50.924;11.604;2024-01-06T11:09:42;6.30;;;4.27;;
4051;SDS011;2040;50.924;11.604;2024-01-06T11:12:16;7.50;;;5.10;;
4051;SDS011;2040;50.924;11.604;2024-01-06T11:14:41;6.20;;;4.47;;
4051;SDS011;2040;50.924;11.604;2024-01-06T11:17:07;13.33;;;6.53;;
4051;SDS011;2040;50.924;11.604;2024-01-06T11:22:18;14.83;;;7.30;;
4051;SDS011;2040;50.924;11.604;2024-01-06T11:24:49;8.13;;;4.67;;
4051;SDS011;2040;50.924;11.604;2024-01-06T11:27:22;8.50;;;4.60;;
4051;SDS011;2040;50.924;11.604;2024-01-06T11:29:51;5.40;;;3.77;;
4051;SDS011;2040;50.924;11.604;2024-01-06T11:32:28;6.80;;;4.77;;
4051;SDS011;2040;50.924;11.604;2024-01-06T11:35:06;7.40;;;3.80;;
4051;SDS011;2040;50.924;11.604;2024-01-06T11:45:27;5.80;;;3.87;;
4051;SDS011;2040;50.924;11.604;2024-01-06T11:47:57;6.10;;;3.50;;
4051;SDS011;2040;50.924;11.604;2024-01-06T11:50:24;8.27;;;4.10;;
4051;SDS011;2040;50.924;11.604;2024-01-06T11:52:51;10.20;;;4.53;;
4051;SDS011;2040;50.924;11.604;2024-01-06T11:55:17;8.87;;;4.07;;
4051;SDS011;2040;50.924;11.604;2024-01-06T11:57:46;4.97;;;3.80;;
4051;SDS011;2040;50.924;11.604;2024-01-06T12:00:14;5.80;;;4.43;;
4051;SDS011;2040;50.924;11.604;2024-01-06T12:02:40;6.17;;;3.80;;
4051;SDS011;2040;50.924;11.604;2024-01-06T12:05:11;8.90;;;4.67;;
4051;SDS011;2040;50.924;11.604;2024-01-06T12:07:42;4.93;;;3.60;;
4051;SDS011;2040;50.924;11.604;2024-01-06T12:10:09;5.00;;;3.70;;
4051;SDS011;2040;50.924;11.604;2024-01-06T12:12:35;5.53;;;3.57;;
4051;SDS011;2040;50.924;11.604;2024-01-06T12:15:00;6.83;;;4.13;;
4051;SDS011;2040;50.924;11.604;2024-01-06T12:17:30;7.00;;;4.13;;
4051;SDS011;2040;50.924;11.604;2024-01-06T12:19:56;8.40;;;4.40;;
4051;SDS011;2040;50.924;11.604;2024-01-06T12:22:22;10.20;;;4.83;;
4051;SDS011;2040;50.924;11.604;2024-01-06T12:24:51;9.53;;;3.93;;
4051;SDS011;2040;50.924;11.604;2024-01-06T12:27:17;7.07;;;4.40;;
4051;SDS011;2040;50.924;11.604;2024-01-06T12:29:43;11.70;;;6.43;;
4051;SDS011;2040;50.924;11.604;2024-01-06T12:32:09;14.77;;;8.33;;
4051;SDS011;2040;50.924;11.604;2024-01-06T12:34:35;25.30;;;9.87;;
4051;SDS011;2040;50.924;11.604;2024-01-06T12:37:01;14.93;;;9.07;;
4051;SDS011;2040;50.924;11.604;2024-01-06T12:39:27;19.10;;;8.20;;
4051;SDS011;2040;50.924;11.604;2024-01-06T12:41:54;13.17;;;7.53;;
4051;SDS011;2040;50.924;11.604;2024-01-06T12:44:20;21.50;;;7.50;;
4051;SDS011;2040;50.924;11.604;2024-01-06T12:46:46;9.87;;;6.23;;
4051;SDS011;2040;50.924;11.604;2024-01-06T12:49:12;17.33;;;9.97;;
4051;SDS011;2040;50.924;11.604;2024-01-06T12:51:38;23.13;;;11.27;;
4051;SDS011;2040;50.924;11.604;2024-01-06T12:54:04;19.10;;;9.57;;
4051;SDS011;2040;50.924;11.604;2024-01-06T12:56:29;13.27;;;6.60;;
4051;SDS011;2040;50.924;11.604;2024-01-06T12:58:55;10.07;;;6.17;;
4051;SDS011;2040;50.924;11.604;2024-01-06T13:01:21;7.20;;;4.70;;
4051;SDS011;2040;50.924;11.604;2024-01-06T13:03:46;10.00;;;4.60;;
4051;SDS011;2040;50.924;11.604;2024-01-06T13:06:12;12.30;;;6.10;;
4051;SDS011;2040;50.924;11.604;2024-01-06T13:08:38;14.93;;;5.90;;
4051;SDS011;2040;50.924;11.604;2024-01-06T13:11:04;9.27;;;5.93;;
4051;SDS011;2040;50.924;11.604;2024-01-06T13:13:30;9.47;;;5.70;;
4051;SDS011;2040;50.924;11.604;2024-01-06T13:15:59;7.83;;;5.30;;
4051;SDS011;2040;50.924;11.604;2024-01-06T13:18:27;9.93;;;5.10;;
4051;SDS011;2040;50.924;11.604;2024-01-06T13:20:53;10.40;;;5.67;;
4051;SDS011;2040;50.924;11.604;2024-01-06T13:23:19;10.47;;;4.40;;
4051;SDS011;2040;50.924;11.604;2024-01-06T13:25:44;10.80;;;5.43;;
4051;SDS011;2040;50.924;11.604;2024-01-06T13:28:10;8.97;;;5.43;;
4051;SDS011;2040;50.924;11.604;2024-01-06T13:30:37;13.90;;;6.57;;
4051;SDS011;2040;50.924;11.604;2024-01-06T13:33:04;16.50;;;9.63;;
4051;SDS011;2040;50.924;11.604;2024-01-06T13:35:30;13.83;;;6.27;;
4051;SDS011;2040;50.924;11.604;2024-01-06T13:37:56;8.20;;;5.70;;
4051;SDS011;2040;50.924;11.604;2024-01-06T13:40:22;11.73;;;7.00;;
4051;SDS011;2040;50.924;11.604;2024-01-06T13:42:48;8.37;;;6.00;;
4051;SDS011;2040;50.924;11.604;2024-01-06T13:45:14;11.50;;;6.30;;
4051;SDS011;2040;50.924;11.604;2024-01-06T13:47:40;10.13;;;5.53;;
4051;SDS011;2040;50.924;11.604;2024-01-06T13:50:09;11.00;;;5.83;;
4051;SDS011;2040;50.924;11.604;2024-01-06T13:52:35;13.23;;;5.97;;
4051;SDS011;2040;50.924;11.604;2024-01-06T13:55:01;14.20;;;8.60;;
4051;SDS011;2040;50.924;11.604;2024-01-06T13:57:26;11.00;;;7.10;;
4051;SDS011;2040;50.924;11.604;2024-01-06T13:59:52;10.13;;;6.50;;
4051;SDS011;2040;50.924;11.604;2024-01-06T14:02:17;9.23;;;6.13;;
4051;SDS011;2040;50.924;11.604;2024-01-06T14:04:43;8.80;;;5.90;;
4051;SDS011;2040;50.924;11.604;2024-01-06T14:07:09;11.70;;;6.27;;
4051;SDS011;2040;50.924;11.604;2024-01-06T14:09:35;16.97;;;9.93;;
4051;SDS011;2040;50.924;11.604;2024-01-06T14:12:01;12.20;;;7.60;;
4051;SDS011;2040;50.924;11.604;2024-01-06T14:14:26;16.70;;;7.20;;
4051;SDS011;2040;50.924;11.604;2024-01-06T14:16:52;10.10;;;7.13;;
4051;SDS011;2040;50.924;11.604;2024-01-06T14:19:18;6.67;;;4.80;;
4051;SDS011;2040;50.924;11.604;2024-01-06T14:21:43;12.00;;;5.80;;
4051;SDS011;2040;50.924;11.604;2024-01-06T14:24:09;10.20;;;6.27;;
4051;SDS011;2040;50.924;11.604;2024-01-06T14:26:34;17.00;;;8.10;;
4051;SDS011;2040;50.924;11.604;2024-01-06T14:29:00;14.23;;;6.53;;
4051;SDS011;2040;50.924;11.604;2024-01-06T14:31:25;12.67;;;6.77;;
4051;SDS011;2040;50.924;11.604;2024-01-06T14:33:54;13.33;;;6.60;;
4051;SDS011;2040;50.924;11.604;2024-01-06T14:36:20;11.40;;;6.80;;
4051;SDS011;2040;50.924;11.604;2024-01-06T14:38:45;10.27;;;7.10;;
4051;SDS011;2040;50.924;11.604;2024-01-06T14:41:11;17.17;;;9.70;;
4051;SDS011;2040;50.924;11.604;2024-01-06T14:43:36;19.20;;;9.80;;
4051;SDS011;2040;50.924;11.604;2024-01-06T14:46:03;20.80;;;11.03;;
4051;SDS011;2040;50.924;11.604;2024-01-06T14:48:30;13.33;;;6.73;;
4051;SDS011;2040;50.924;11.604;2024-01-06T14:50:56;23.83;;;11.47;;
4051;SDS011;2040;50.924;11.604;2024-01-06T14:53:21;17.67;;;7.93;;